createdAt,value
2023-02-18T00:01:44.844Z,99671.81
2023-02-18T00:04:12.950Z,99659.44
2023-02-18T00:06:42.928Z,99680.47
2023-02-18T00:09:12.898Z,99670.13
2023-02-18T00:11:41.822Z,99662.41
2023-02-18T00:14:13.797Z,99700.06
2023-02-18T00:16:42.921Z,99700.78
2023-02-18T00:19:14.749Z,99719.22
2023-02-18T00:21:44.599Z,99729.72
2023-02-18T00:24:16.008Z,99765.78
2023-02-18T00:26:44.921Z,99733.22
2023-02-18T00:29:13.769Z,99742.94
2023-02-18T00:31:42.813Z,99748.19
2023-02-18T00:34:12.463Z,99758.88
2023-02-18T00:36:41.064Z,99772.53
2023-02-18T00:39:13.183Z,99781.47
2023-02-18T00:41:42.310Z,99783.50
2023-02-18T00:44:10.936Z,99788.44
2023-02-18T00:46:39.865Z,99792.84
2023-02-18T00:49:08.625Z,99797.41
2023-02-18T00:51:37.778Z,99809.56
2023-02-18T00:54:06.574Z,99804.44
2023-02-18T00:56:36.577Z,99817.53
2023-02-18T00:59:04.909Z,99816.75
2023-02-18T01:01:33.694Z,99827.16
2023-02-18T01:04:02.231Z,99829.09
2023-02-18T01:06:30.391Z,99851.75
2023-02-18T01:08:58.949Z,99810.03
2023-02-18T01:11:27.360Z,99852.53
2023-02-18T01:13:57.274Z,99863.88
2023-02-18T01:16:25.966Z,99881.50
2023-02-18T01:18:54.273Z,99872.69
2023-02-18T01:21:22.781Z,99890.09
2023-02-18T01:23:50.974Z,99900.75
2023-02-18T01:26:19.711Z,99895.47
2023-02-18T01:28:48.596Z,99904.19
2023-02-18T01:31:19.190Z,99915.56
2023-02-18T01:33:47.670Z,99907.75
2023-02-18T01:36:15.813Z,99916.47
2023-02-18T01:38:44.028Z,99924.25
2023-02-18T01:41:12.385Z,99937.38
2023-02-18T01:43:41.416Z,99956.56
2023-02-18T01:46:22.258Z,99949.50
2023-02-18T01:48:55.101Z,99955.81
2023-02-18T01:51:27.069Z,99964.50
2023-02-18T01:53:59.152Z,99967.16
2023-02-18T01:56:30.672Z,99975.00
2023-02-18T01:59:10.264Z,99979.34
2023-02-18T02:01:42.175Z,99986.25
2023-02-18T02:04:10.511Z,99965.44
2023-02-18T02:06:38.682Z,99981.13
2023-02-18T02:09:11.207Z,100002.06
2023-02-18T02:12:09.513Z,100003.06
2023-02-18T02:14:56.555Z,100009.13
2023-02-18T02:17:39.145Z,100020.38
2023-02-18T02:20:43.448Z,100013.53
2023-02-18T02:23:47.443Z,100025.66
2023-02-18T02:26:57.266Z,100024.75
2023-02-18T02:30:16.821Z,100030.94
2023-02-18T02:33:30.516Z,100043.13
2023-02-18T02:36:04.995Z,100043.97
2023-02-18T02:38:38.335Z,100039.63
2023-02-18T02:41:20.850Z,100041.38
2023-02-18T02:43:57.755Z,100049.25
2023-02-18T02:46:31.012Z,100064.13
2023-02-18T02:49:07.394Z,100030.94
2023-02-18T02:51:42.669Z,100023.19
2023-02-18T02:54:16.031Z,100066.75
2023-02-18T02:56:44.391Z,100063.22
2023-02-18T02:59:26.706Z,100082.38
2023-02-18T03:02:14.332Z,100078.94
2023-02-18T03:05:01.382Z,100072.81
2023-02-18T03:07:56.285Z,100068.53
2023-02-18T03:10:46.151Z,100085.94
2023-02-18T03:13:24.173Z,100092.94
2023-02-18T03:15:57.848Z,100105.13
2023-02-18T03:18:35.396Z,100090.25
2023-02-18T03:21:08.937Z,100094.66
2023-02-18T03:23:43.475Z,100099.88
2023-02-18T03:26:13.291Z,100091.16
2023-02-18T03:28:42.363Z,100096.38
2023-02-18T03:31:15.231Z,100113.84
2023-02-18T03:33:48.375Z,100111.28
2023-02-18T03:36:17.344Z,100111.25
2023-02-18T03:38:52.982Z,100122.69
2023-02-18T03:41:21.761Z,100125.31
2023-02-18T03:43:53.372Z,100127.94
2023-02-18T03:46:21.487Z,100134.91
2023-02-18T03:48:50.116Z,100147.94
2023-02-18T03:51:21.007Z,100147.13
2023-02-18T03:53:50.694Z,100150.56
2023-02-18T03:56:19.806Z,100148.81
2023-02-18T03:58:48.067Z,100145.34
2023-02-18T04:01:17.053Z,100150.56
2023-02-18T04:03:45.820Z,100159.38
2023-02-18T04:06:14.142Z,100145.38
2023-02-18T04:08:42.398Z,100146.28
2023-02-18T04:11:12.080Z,100152.38
2023-02-18T04:13:40.272Z,100155.84
2023-02-18T04:16:09.020Z,100155.84
2023-02-18T04:18:37.726Z,100152.28
2023-02-18T04:21:06.815Z,100164.59
2023-02-18T04:23:35.030Z,100168.09
2023-02-18T04:26:03.299Z,100160.22
2023-02-18T04:28:32.894Z,100176.75
2023-02-18T04:31:01.148Z,100162.84
2023-02-18T04:33:29.418Z,100176.81
2023-02-18T04:35:57.731Z,100174.19
2023-02-18T04:38:26.005Z,100185.53
2023-02-18T04:40:54.587Z,100181.16
2023-02-18T04:43:22.667Z,100184.63
2023-02-18T04:45:52.381Z,100168.13
2023-02-18T04:48:20.808Z,100180.31
2023-02-18T04:50:48.941Z,100167.25
2023-02-18T04:53:17.724Z,100164.59
2023-02-18T04:55:50.534Z,100167.22
2023-02-18T04:58:19.071Z,100180.31
2023-02-18T05:00:47.750Z,100177.69
2023-02-18T05:03:17.924Z,100182.06
2023-02-18T05:05:46.545Z,100179.44
2023-02-18T05:08:16.385Z,100183.81
2023-02-18T05:10:44.574Z,100182.94
2023-02-18T05:13:12.904Z,100183.81
2023-02-18T05:15:41.448Z,100175.94
2023-02-18T05:18:09.940Z,100180.31
2023-02-18T05:20:39.509Z,100184.69
2023-02-18T05:23:07.791Z,100181.16
2023-02-18T05:25:36.020Z,100178.56
2023-02-18T05:28:04.301Z,100191.63
2023-02-18T05:30:32.655Z,100189.91
2023-02-18T05:33:01.260Z,100167.25
2023-02-18T05:35:29.401Z,100193.38
2023-02-18T05:37:58.899Z,100171.56
2023-02-18T05:40:27.255Z,100192.53
2023-02-18T05:42:55.501Z,100196.00
2023-02-18T05:45:23.620Z,100193.34
2023-02-18T05:47:52.054Z,100204.72
2023-02-18T05:50:20.770Z,100197.78
2023-02-18T05:52:48.813Z,100202.13
2023-02-18T05:55:18.681Z,100192.50
2023-02-18T05:57:47.353Z,100196.91
2023-02-18T06:00:16.264Z,100203.88
2023-02-18T06:02:44.931Z,100192.56
2023-02-18T06:05:13.372Z,100195.16
2023-02-18T06:07:41.870Z,100204.78
2023-02-18T06:10:10.629Z,100206.53
2023-02-18T06:12:40.408Z,100192.53
2023-02-18T06:15:09.294Z,100200.38
2023-02-18T06:17:37.774Z,100189.03
2023-02-18T06:20:06.609Z,100196.03
2023-02-18T06:22:35.064Z,100199.47
2023-02-18T06:25:03.385Z,100204.75
2023-02-18T06:27:31.730Z,100199.53
2023-02-18T06:30:01.298Z,100204.75
2023-02-18T06:32:29.931Z,100204.75
2023-02-18T06:34:58.277Z,100202.13
2023-02-18T06:37:26.724Z,100207.34
2023-02-18T06:39:55.366Z,100204.78
2023-02-18T06:42:23.611Z,100201.25
2023-02-18T06:44:51.719Z,100208.22
2023-02-18T06:47:21.939Z,100217.81
2023-02-18T06:49:51.292Z,100200.38
2023-02-18T06:52:21.042Z,100176.84
2023-02-18T06:54:50.403Z,100218.69
2023-02-18T06:57:18.819Z,100226.56
2023-02-18T06:59:50.013Z,100212.59
2023-02-18T07:02:18.828Z,100187.31
2023-02-18T07:04:48.822Z,100174.22
2023-02-18T07:07:17.756Z,100216.97
2023-02-18T07:09:46.084Z,100225.69
2023-02-18T07:12:14.914Z,100154.22
2023-02-18T07:14:42.992Z,100197.78
2023-02-18T07:17:11.335Z,100204.78
2023-02-18T07:19:39.736Z,100213.50
2023-02-18T07:22:09.437Z,100230.91
2023-02-18T07:24:37.928Z,100235.28
2023-02-18T07:27:06.529Z,100219.56
2023-02-18T07:29:34.719Z,100242.28
2023-02-18T07:32:03.091Z,100230.97
2023-02-18T07:34:31.260Z,100241.38
2023-02-18T07:36:59.701Z,100236.13
2023-02-18T07:39:29.218Z,100229.19
2023-02-18T07:41:57.660Z,100236.16
2023-02-18T07:44:27.757Z,100234.41
2023-02-18T07:46:55.909Z,100242.28
2023-02-18T07:49:24.767Z,100241.41
2023-02-18T07:51:52.983Z,100251.00
2023-02-18T07:54:21.497Z,100241.41
2023-02-18T07:56:51.456Z,100253.63
2023-02-18T07:59:19.960Z,100239.66
2023-02-18T08:01:51.675Z,100237.03
2023-02-18T08:04:20.586Z,100234.44
2023-02-18T08:06:51.195Z,100244.88
2023-02-18T08:09:20.744Z,100246.63
2023-02-18T08:11:50.807Z,100251.84
2023-02-18T08:14:19.534Z,100260.59
2023-02-18T08:16:48.688Z,100255.31
2023-02-18T08:19:17.026Z,100250.09
2023-02-18T08:21:46.076Z,100241.38
2023-02-18T08:24:14.796Z,100255.31
2023-02-18T08:26:59.728Z,100248.34
2023-02-18T08:29:31.764Z,100261.44
2023-02-18T08:32:02.646Z,100262.31
2023-02-18T08:34:30.943Z,100263.22
2023-02-18T08:36:59.430Z,100264.94
2023-02-18T08:39:27.534Z,100260.59
2023-02-18T08:41:55.824Z,100245.75
2023-02-18T08:44:24.804Z,100269.31
2023-02-18T08:46:54.477Z,100275.44
2023-02-18T08:49:24.354Z,100279.78
2023-02-18T08:51:53.073Z,100272.81
2023-02-18T08:54:21.575Z,100281.53
2023-02-18T08:56:50.006Z,100251.88
2023-02-18T08:59:19.241Z,100284.13
2023-02-18T09:01:47.626Z,100262.31
2023-02-18T09:04:17.590Z,100250.97
2023-02-18T09:06:47.199Z,100286.75
2023-02-18T09:09:15.788Z,100285.00
2023-02-18T09:11:44.513Z,100295.47
2023-02-18T09:14:13.688Z,100278.00
2023-02-18T09:16:42.956Z,100300.69
2023-02-18T09:19:11.732Z,100295.41
2023-02-18T09:21:41.554Z,100297.19
2023-02-18T09:24:09.852Z,100294.59
2023-02-18T09:26:39.814Z,100307.59
2023-02-18T09:29:08.340Z,100298.91
2023-02-18T09:31:38.180Z,100301.47
2023-02-18T09:34:07.290Z,100302.44
2023-02-18T09:36:35.895Z,100305.06
2023-02-18T09:39:05.662Z,100291.97
2023-02-18T09:41:40.289Z,100291.91
2023-02-18T09:44:15.333Z,100317.22
2023-02-18T09:46:51.787Z,100309.38
2023-02-18T09:49:24.897Z,100304.16
2023-02-18T09:51:55.636Z,100316.38
2023-02-18T09:54:25.512Z,100305.91
2023-02-18T09:56:55.131Z,100313.69
2023-02-18T09:59:27.048Z,100266.66
2023-02-18T10:01:57.243Z,100315.44
2023-02-18T10:04:30.566Z,100307.53
2023-02-18T10:06:59.967Z,100311.09
2023-02-18T10:09:35.111Z,100314.44
2023-02-18T10:12:14.556Z,100314.50
2023-02-18T10:14:44.682Z,100297.09
2023-02-18T10:17:16.979Z,100319.53
2023-02-18T10:19:47.551Z,100300.06
2023-02-18T10:22:17.818Z,100287.09
2023-02-18T10:24:51.705Z,100308.91
2023-02-18T10:27:25.786Z,100307.47
2023-02-18T10:29:54.301Z,100302.16
2023-02-18T10:32:25.139Z,100318.81
2023-02-18T10:34:55.900Z,100314.38
2023-02-18T10:37:44.214Z,100291.66
2023-02-18T10:40:19.643Z,100312.63
2023-02-18T10:43:00.807Z,100316.13
2023-02-18T10:45:39.987Z,100312.72
2023-02-18T10:48:26.104Z,100300.59
2023-02-18T10:50:54.618Z,100317.22
2023-02-18T10:53:32.124Z,100311.09
2023-02-18T10:56:02.413Z,100309.38
2023-02-18T10:58:34.842Z,100317.19
2023-02-18T11:01:08.842Z,100293.56
2023-02-18T11:03:45.457Z,100288.28
2023-02-18T11:06:26.647Z,100304.06
2023-02-18T11:08:56.265Z,100311.88
2023-02-18T11:11:31.152Z,100304.00
2023-02-18T11:14:02.110Z,100309.31
2023-02-18T11:16:39.692Z,100297.88
2023-02-18T11:19:34.922Z,100306.66
2023-02-18T11:22:14.824Z,100311.00
2023-02-18T11:24:48.718Z,100312.66
2023-02-18T11:27:25.826Z,100300.50
2023-02-18T11:29:57.416Z,100307.44
2023-02-18T11:32:29.746Z,100309.25
2023-02-18T11:35:01.715Z,100308.31
2023-02-18T11:37:30.072Z,100299.59
2023-02-18T11:39:58.730Z,100289.94
2023-02-18T11:42:29.655Z,100299.50
2023-02-18T11:44:59.973Z,100294.97
2023-02-18T11:47:38.805Z,100295.91
2023-02-18T11:50:22.556Z,100294.09
2023-02-18T11:52:52.465Z,100293.28
2023-02-18T11:55:23.482Z,100280.25
2023-02-18T11:57:57.764Z,100280.22
2023-02-18T12:00:41.004Z,100301.16
2023-02-18T12:03:28.429Z,100293.13
2023-02-18T12:06:00.020Z,100291.38
2023-02-18T12:08:32.255Z,100293.06
2023-02-18T12:11:04.858Z,100303.63
2023-02-18T12:13:38.396Z,100289.63
2023-02-18T12:16:23.241Z,100266.97
2023-02-18T12:19:01.440Z,100292.47
2023-02-18T12:21:37.772Z,100292.53
2023-02-18T12:24:20.255Z,100296.06
2023-02-18T12:26:56.574Z,100300.34
2023-02-18T12:29:42.355Z,100283.84
2023-02-18T12:32:25.495Z,100298.81
2023-02-18T12:35:09.051Z,100290.97
2023-02-18T12:38:03.681Z,100286.59
2023-02-18T12:40:46.802Z,100304.00
2023-02-18T12:43:27.486Z,100298.75
2023-02-18T12:46:17.095Z,100312.78
2023-02-18T12:49:06.897Z,100308.38
2023-02-18T12:51:46.427Z,100318.03
2023-02-18T12:54:39.201Z,100273.56
2023-02-18T12:57:32.233Z,100262.97
2023-02-18T13:00:33.265Z,100298.75
2023-02-18T13:03:30.629Z,100314.44
2023-02-18T13:06:11.067Z,100316.22
2023-02-18T13:08:52.175Z,100308.38
2023-02-18T13:11:37.492Z,100279.59
2023-02-18T13:14:13.362Z,100296.91
2023-02-18T13:16:44.649Z,100304.84
2023-02-18T13:19:23.663Z,100294.25
2023-02-18T13:21:54.889Z,100298.66
2023-02-18T13:24:32.106Z,100307.53
2023-02-18T13:27:10.207Z,100302.28
2023-02-18T13:29:48.817Z,100300.56
2023-02-18T13:32:26.563Z,100311.00
2023-02-18T13:35:01.681Z,100293.63
2023-02-18T13:37:38.919Z,100310.97
2023-02-18T13:40:15.275Z,100316.31
2023-02-18T13:42:43.790Z,100309.31
2023-02-18T13:45:33.772Z,100305.84
2023-02-18T13:48:03.184Z,100323.34
2023-02-18T13:50:44.759Z,100330.41
2023-02-18T13:53:27.530Z,100316.41
2023-02-18T13:56:03.005Z,100312.88
2023-02-18T13:58:44.516Z,100317.22
2023-02-18T14:01:24.024Z,100330.38
2023-02-18T14:04:01.705Z,100303.28
2023-02-18T14:06:36.428Z,100315.56
2023-02-18T14:09:37.522Z,100335.59
2023-02-18T14:12:26.468Z,100325.09
2023-02-18T14:14:55.114Z,100300.72
2023-02-18T14:17:36.444Z,100337.41
2023-02-18T14:20:46.985Z,100343.53
2023-02-18T14:23:45.446Z,100344.38
2023-02-18T14:26:25.500Z,100353.13
2023-02-18T14:29:00.005Z,100351.41
2023-02-18T14:31:38.586Z,100354.91
2023-02-18T14:34:46.168Z,100352.28
2023-02-18T14:37:31.252Z,100367.09
2023-02-18T14:40:16.948Z,100360.16
2023-02-18T14:42:54.324Z,100366.25
2023-02-18T14:45:34.521Z,100356.63
2023-02-18T14:48:25.712Z,100372.38
2023-02-18T14:50:56.655Z,100388.09
2023-02-18T14:53:27.989Z,100358.34
2023-02-18T14:56:07.208Z,100403.81
2023-02-18T14:58:39.251Z,100402.06
2023-02-18T15:01:09.007Z,100411.66
2023-02-18T15:03:42.246Z,100395.06
2023-02-18T15:06:24.305Z,100386.34
2023-02-18T15:08:52.899Z,100394.19
2023-02-18T15:11:25.844Z,100405.56
2023-02-18T15:13:54.692Z,100395.09
2023-02-18T15:16:31.596Z,100392.44
2023-02-18T15:19:03.882Z,100409.94
2023-02-18T15:21:34.305Z,100414.28
2023-02-18T15:24:07.998Z,100409.94
2023-02-18T15:26:42.784Z,100415.19
2023-02-18T15:29:19.155Z,100408.19
2023-02-18T15:31:48.925Z,100429.97
2023-02-18T15:34:37.169Z,100429.16
2023-02-18T15:37:08.558Z,100409.00
2023-02-18T15:39:38.954Z,100405.53
2023-02-18T15:42:18.932Z,100417.75
2023-02-18T15:44:52.994Z,100424.78
2023-02-18T15:47:22.252Z,100420.38
2023-02-18T15:49:55.380Z,100422.13
2023-02-18T15:52:29.895Z,100426.53
2023-02-18T15:55:09.165Z,100443.06
2023-02-18T15:57:45.366Z,100459.69
2023-02-18T16:00:22.529Z,100464.97
2023-02-18T16:02:57.237Z,100445.69
2023-02-18T16:05:30.722Z,100464.03
2023-02-18T16:08:02.037Z,100434.34
2023-02-18T16:10:58.489Z,100472.78
2023-02-18T16:13:31.041Z,100483.28
2023-02-18T16:16:03.065Z,100491.13
2023-02-18T16:18:38.530Z,100463.13
2023-02-18T16:24:49.960Z,100501.59
2023-02-18T16:27:19.254Z,100490.22
2023-02-18T16:29:53.147Z,100478.91
2023-02-18T16:32:23.501Z,100482.38
2023-02-18T16:34:52.463Z,100468.41
2023-02-18T16:37:38.918Z,100447.38
2023-02-18T16:40:33.307Z,100501.59
2023-02-18T16:43:04.348Z,100499.81
2023-02-18T16:45:40.374Z,100502.44
2023-02-18T16:48:16.368Z,100503.31
2023-02-18T16:50:45.152Z,100480.53
2023-02-18T16:53:14.737Z,100502.44
2023-02-18T16:55:43.568Z,100513.81
2023-02-18T16:58:12.240Z,100527.78
2023-02-18T17:00:42.379Z,100533.00
2023-02-18T17:03:12.728Z,100528.63
2023-02-18T17:05:41.531Z,100487.47
2023-02-18T17:08:18.801Z,100499.69
2023-02-18T17:10:48.643Z,100513.69
2023-02-18T17:13:19.042Z,100522.50
2023-02-18T17:15:54.233Z,100517.16
2023-02-18T17:18:23.972Z,100532.84
2023-02-18T17:20:54.163Z,100531.06
2023-02-18T17:23:24.977Z,100506.59
2023-02-18T17:25:53.942Z,100560.78
2023-02-18T17:28:23.263Z,100565.19
2023-02-18T17:30:57.791Z,100562.47
2023-02-18T17:33:26.868Z,100475.03
2023-02-18T17:35:55.817Z,100565.19
2023-02-18T17:38:24.599Z,100576.53
2023-02-18T17:40:52.789Z,100555.56
2023-02-18T17:43:23.601Z,100591.41
2023-02-18T17:45:55.241Z,100589.63
2023-02-18T17:48:23.568Z,100579.97
2023-02-18T17:50:53.423Z,100587.00
2023-02-18T17:53:23.927Z,100597.38
2023-02-18T17:55:55.946Z,100607.81
2023-02-18T17:58:24.675Z,100616.53
2023-02-18T18:00:57.162Z,100595.63
2023-02-18T18:03:26.225Z,100602.66
2023-02-18T18:05:54.874Z,100606.13
2023-02-18T18:08:23.072Z,100590.38
2023-02-18T18:10:54.874Z,100623.59
2023-02-18T18:13:25.434Z,100620.13
2023-02-18T18:15:57.828Z,100628.75
2023-02-18T18:18:27.345Z,100641.03
2023-02-18T18:21:01.966Z,100639.16
2023-02-18T18:23:32.054Z,100653.16
2023-02-18T18:26:00.846Z,100649.72
2023-02-18T18:28:32.987Z,100648.91
2023-02-18T18:31:03.319Z,100646.31
2023-02-18T18:33:33.831Z,100616.50
2023-02-18T18:36:02.914Z,100655.84
2023-02-18T18:38:31.098Z,100648.81
2023-02-18T18:40:59.892Z,100647.94
2023-02-18T18:43:32.441Z,100655.78
2023-02-18T18:46:02.698Z,100667.06
2023-02-18T18:48:31.006Z,100665.44
2023-02-18T18:51:01.255Z,100651.38
2023-02-18T18:53:31.775Z,100663.59
2023-02-18T18:56:02.916Z,100668.91
2023-02-18T18:58:31.669Z,100665.41
2023-02-18T19:01:04.231Z,100654.06
2023-02-18T19:03:34.014Z,100666.31
2023-02-18T19:06:02.264Z,100670.56
2023-02-18T19:08:32.420Z,100682.75
2023-02-18T19:11:00.607Z,100674.78
2023-02-18T19:13:31.471Z,100689.69
2023-02-18T19:16:07.645Z,100686.97
2023-02-18T19:18:36.131Z,100687.00
2023-02-18T19:21:04.804Z,100694.78
2023-02-18T19:23:34.174Z,100694.78
2023-02-18T19:26:02.667Z,100705.16
2023-02-18T19:28:31.102Z,100719.16
2023-02-18T19:30:59.686Z,100710.34
2023-02-18T19:33:29.660Z,100726.16
2023-02-18T19:35:57.852Z,100703.31
2023-02-18T19:38:26.276Z,100726.09
2023-02-18T19:40:56.763Z,100721.66
2023-02-18T19:43:25.186Z,100738.25
2023-02-18T19:45:54.007Z,100735.66
2023-02-18T19:48:23.425Z,100743.47
2023-02-18T19:50:54.704Z,100741.66
2023-02-18T19:53:22.806Z,100738.25
2023-02-18T19:55:58.645Z,100727.63
2023-02-18T19:58:27.639Z,100745.16
2023-02-18T20:00:56.393Z,100739.94
2023-02-18T20:03:25.027Z,100741.63
2023-02-18T20:05:55.211Z,100733.69
2023-02-18T20:08:23.612Z,100753.72
2023-02-18T20:10:57.958Z,100725.63
2023-02-18T20:13:26.226Z,100749.34
2023-02-18T20:15:54.448Z,100741.50
2023-02-18T20:18:22.864Z,100741.66
2023-02-18T20:20:51.651Z,100739.94
2023-02-18T20:23:21.528Z,100743.38
2023-02-18T20:25:50.693Z,100756.28
2023-02-18T20:28:19.266Z,100762.41
2023-02-18T20:30:47.534Z,100760.63
2023-02-18T20:33:16.481Z,100741.19
2023-02-18T20:35:45.316Z,100756.19
2023-02-18T20:38:14.154Z,100775.53
2023-02-18T20:40:45.850Z,100783.50
2023-02-18T20:43:14.375Z,100760.66
2023-02-18T20:45:42.583Z,100771.31
2023-02-18T20:48:11.092Z,100759.84
2023-02-18T20:50:39.961Z,100690.31
2023-02-18T20:53:08.442Z,100758.84
2023-02-18T20:55:37.025Z,100783.38
2023-02-18T20:58:06.905Z,100774.53
2023-02-18T21:00:35.393Z,100766.66
2023-02-18T21:03:04.379Z,100748.28
2023-02-18T21:05:32.577Z,100790.31
2023-02-18T21:08:01.103Z,100769.31
2023-02-18T21:10:30.045Z,100784.16
2023-02-18T21:12:59.379Z,100779.75
2023-02-18T21:15:29.920Z,100771.00
2023-02-18T21:17:59.026Z,100783.22
2023-02-18T21:20:28.052Z,100777.91
2023-02-18T21:22:56.620Z,100777.91
2023-02-18T21:25:25.153Z,100772.66
2023-02-18T21:27:54.042Z,100772.66
2023-02-18T21:30:22.333Z,100793.59
2023-02-18T21:32:56.472Z,100792.66
2023-02-18T21:35:27.278Z,100776.03
2023-02-18T21:38:04.875Z,100759.31
2023-02-18T21:40:37.753Z,100784.88
2023-02-18T21:43:06.285Z,100768.84
2023-02-18T21:45:34.753Z,100767.06
2023-02-18T21:48:28.400Z,100791.72
2023-02-18T21:51:01.582Z,100803.84
2023-02-18T21:53:30.131Z,100807.34
2023-02-18T21:56:03.701Z,100810.84
2023-02-18T21:58:32.397Z,100810.06
2023-02-18T22:01:00.613Z,100798.72
2023-02-18T22:03:30.439Z,100802.13
2023-02-18T22:05:58.703Z,100810.84
2023-02-18T22:08:27.114Z,100817.78
2023-02-18T22:10:55.288Z,100819.38
2023-02-18T22:13:23.464Z,100818.53
2023-02-18T22:15:56.552Z,100805.41
2023-02-18T22:18:24.770Z,100829.97
2023-02-18T22:20:54.774Z,100828.16
2023-02-18T22:23:23.266Z,100835.13
2023-02-18T22:25:52.336Z,100845.25
2023-02-18T22:28:23.309Z,100836.47
2023-02-18T22:30:51.621Z,100827.81
2023-02-18T22:33:19.847Z,100839.19
2023-02-18T22:35:48.575Z,100838.19
2023-02-18T22:38:18.310Z,100841.69
2023-02-18T22:40:48.050Z,100837.25
2023-02-18T22:43:17.422Z,100842.47
2023-02-18T22:45:45.751Z,100846.56
2023-02-18T22:48:14.043Z,100854.31
2023-02-18T22:50:42.172Z,100844.69
2023-02-18T22:53:10.570Z,100850.03
2023-02-18T22:55:40.151Z,100855.19
2023-02-18T22:58:08.400Z,100854.38
2023-02-18T23:00:36.516Z,100855.25
2023-02-18T23:03:04.707Z,100865.59
2023-02-18T23:05:35.505Z,100864.59
2023-02-18T23:08:06.117Z,100865.59
2023-02-18T23:10:35.422Z,100858.47
2023-02-18T23:13:05.286Z,100863.81
2023-02-18T23:15:33.555Z,100884.75
2023-02-18T23:18:01.864Z,100867.13
2023-02-18T23:20:47.833Z,100875.03
2023-02-18T23:23:16.272Z,100867.44
2023-02-18T23:25:44.352Z,100874.25
2023-02-18T23:28:14.345Z,100872.66
2023-02-18T23:30:43.271Z,100871.13
2023-02-18T23:33:11.867Z,100871.00
2023-02-18T23:35:40.136Z,100868.34
2023-02-18T23:38:08.504Z,100886.41
2023-02-18T23:40:36.575Z,100874.13
2023-02-18T23:43:05.237Z,100884.56
2023-02-18T23:45:34.805Z,100890.63
2023-02-18T23:48:02.867Z,100892.53
2023-02-18T23:50:31.245Z,100888.03
2023-02-18T23:52:59.525Z,100892.53
2023-02-18T23:55:27.608Z,100890.88
2023-02-18T23:57:56.001Z,100892.28
